Time;durP1;ratioP1;P1;durP2;ratioP2;P2;SDS_P1;SDS_P2;PMS_P1;PMS_P2;Temp;Humidity;BMP_temperature;BMP_pressure;BME280_temperature;BME280_humidity;BME280_pressure;Samples;Min_cycle;Max_cycle;Signal;HPM_P1;HPM_P2
2024/01/04 00:02:00;;;;;;;;;;;;;;;9.50;68.34;97672.50;4436124;32;34789;-85
2024/01/04 00:04:27;;;;;;;;;;;;;;;9.47;68.06;97662.19;4437163;32;34832;-85
2024/01/04 00:06:54;;;;;;;;;;;;;;;9.28;68.86;97665.78;4436564;32;34191;-88
2024/01/04 00:09:21;;;;;;;;;;;;;;;9.23;69.05;97662.34;4437118;32;33538;-82
2024/01/04 00:11:49;;;;;;;;;;;;;;;9.06;69.61;97659.00;4436783;32;34977;-88
2024/01/04 00:14:16;;;;;;;;;;;;;;;9.17;69.58;97657.22;4437058;32;34272;-82
2024/01/04 00:16:43;;;;;;;;;;;;;;;9.36;69.02;97666.56;4436734;32;34292;-83
2024/01/04 00:19:11;;;;;;;;;;;;;;;9.39;68.53;97668.25;4436567;32;33747;-83
2024/01/04 00:21:38;;;;;;;;;;;;;;;9.52;68.10;97663.88;4436955;32;33473;-82
2024/01/04 00:24:06;;;;;;;;;;;;;;;9.50;67.91;97671.63;4436269;32;34218;-83
2024/01/04 00:26:34;;;;;;;;;;;;;;;9.59;67.69;97676.75;4433339;32;35053;-90
2024/01/04 00:29:01;;;;;;;;;;;;;;;9.41;68.27;97671.72;4437183;32;34346;-83
2024/01/04 00:31:28;;;;;;;;;;;;;;;9.39;68.47;97678.59;4436136;32;35107;-90
2024/01/04 00:33:56;;;;;;;;;;;;;;;9.38;68.53;97677.75;4436048;32;35407;-82
2024/01/04 00:36:24;;;;;;;;;;;;;;;9.29;68.71;97676.97;4436539;32;34802;-84
2024/01/04 00:38:51;;;;;;;;;;;;;;;9.49;68.13;97680.28;4436953;32;33576;-82
2024/01/04 00:41:19;;;;;;;;;;;;;;;9.39;68.44;97679.47;4436528;32;34136;-82
2024/01/04 00:43:46;;;;;;;;;;;;;;;9.36;68.64;97679.50;4436723;32;34706;-82
2024/01/04 00:46:13;;;;;;;;;;;;;;;9.44;68.44;97680.31;4436461;32;34109;-83
2024/01/04 00:48:41;;;;;;;;;;;;;;;9.58;68.22;97680.19;4435953;32;33393;-84
2024/01/04 00:51:08;;;;;;;;;;;;;;;9.56;68.16;97687.12;4438836;32;35043;-83
2024/01/04 00:53:35;;;;;;;;;;;;;;;9.43;68.43;97681.19;4427578;32;33461;-89
2024/01/04 00:56:03;;;;;;;;;;;;;;;8.50;72.75;97699.69;4435906;32;33970;-86
2024/01/04 00:58:30;;;;;;;;;;;;;;;9.09;71.02;97687.41;4436169;32;33264;-82
2024/01/04 01:00:57;;;;;;;;;;;;;;;9.56;69.15;97678.50;4436152;32;34858;-82
2024/01/04 01:03:25;;;;;;;;;;;;;;;9.51;68.73;97675.97;4433646;32;33969;-88
2024/01/04 01:05:53;;;;;;;;;;;;;;;9.56;68.63;97675.94;4435321;32;34809;-83
2024/01/04 01:08:21;;;;;;;;;;;;;;;9.64;68.31;97680.16;4435531;32;34108;-88
2024/01/04 01:10:49;;;;;;;;;;;;;;;9.54;68.61;97673.31;4435552;32;33764;-87
2024/01/04 01:13:20;;;;;;;;;;;;;;;9.53;68.70;97663.84;4434462;32;34454;-82
2024/01/04 01:15:47;;;;;;;;;;;;;;;9.66;68.25;97662.91;4434127;32;35293;-83
2024/01/04 01:18:15;;;;;;;;;;;;;;;9.70;68.06;97649.06;4435662;32;32917;-82
2024/01/04 01:20:43;;;;;;;;;;;;;;;9.59;68.51;97637.94;4436996;32;33916;-82
2024/01/04 01:23:10;;;;;;;;;;;;;;;9.40;69.18;97636.38;4436121;32;35147;-82
2024/01/04 01:25:37;;;;;;;;;;;;;;;9.30;69.68;97639.88;4436351;32;34388;-82
2024/01/04 01:28:05;;;;;;;;;;;;;;;9.32;69.51;97635.53;4436404;32;33325;-84
2024/01/04 01:30:32;;;;;;;;;;;;;;;9.51;69.20;97632.00;4436230;32;34976;-82
2024/01/04 01:32:59;;;;;;;;;;;;;;;9.78;68.07;97635.22;4436238;32;35271;-83
2024/01/04 01:35:27;;;;;;;;;;;;;;;9.78;67.84;97642.97;4436517;32;34834;-85
2024/01/04 01:37:54;;;;;;;;;;;;;;;9.87;67.35;97632.53;4436316;32;33411;-82
2024/01/04 01:40:21;;;;;;;;;;;;;;;9.87;67.15;97630.81;4436380;32;33456;-82
2024/01/04 01:42:49;;;;;;;;;;;;;;;9.78;67.16;97630.91;4435844;32;34398;-87
2024/01/04 01:45:16;;;;;;;;;;;;;;;9.78;66.96;97635.22;4435816;32;34717;-84
2024/01/04 01:47:47;;;;;;;;;;;;;;;9.52;67.37;97641.44;4434866;32;33456;-82
2024/01/04 01:50:15;;;;;;;;;;;;;;;9.62;67.43;97653.47;4434978;32;34574;-82
2024/01/04 01:52:42;;;;;;;;;;;;;;;9.09;69.40;97659.84;4434551;32;33913;-82
2024/01/04 01:55:10;;;;;;;;;;;;;;;9.33;68.58;97653.66;4432461;32;34339;-83
2024/01/04 01:57:37;;;;;;;;;;;;;;;9.52;67.82;97651.81;4427678;32;34328;-83
2024/01/04 02:00:04;;;;;;;;;;;;;;;9.67;67.10;97648.25;4436102;32;34880;-83
2024/01/04 02:02:38;;;;;;;;;;;;;;;9.54;67.52;97654.37;4441320;32;35217;-89
2024/01/04 02:05:07;;;;;;;;;;;;;;;9.60;67.24;97652.59;4435673;32;35027;-84
2024/01/04 02:07:34;;;;;;;;;;;;;;;9.60;67.35;97652.59;4435821;32;33954;-84
2024/01/04 02:10:01;;;;;;;;;;;;;;;9.38;67.88;97645.84;4434368;32;34136;-82
2024/01/04 02:12:30;;;;;;;;;;;;;;;9.48;67.70;97648.38;4435174;32;34522;-82
2024/01/04 02:14:57;;;;;;;;;;;;;;;9.33;67.99;97640.72;4434660;32;34570;-83
2024/01/04 02:17:25;;;;;;;;;;;;;;;9.27;68.44;97649.38;4435640;32;34051;-83
2024/01/04 02:19:53;;;;;;;;;;;;;;;9.50;68.13;97646.63;4435902;32;34734;-84
2024/01/04 02:22:20;;;;;;;;;;;;;;;9.43;68.37;97647.56;4433974;32;34106;-83
2024/01/04 02:24:48;;;;;;;;;;;;;;;9.52;68.16;97656.97;4435594;32;34809;-83
2024/01/04 02:27:16;;;;;;;;;;;;;;;9.66;68.08;97668.09;4434090;32;32861;-81
2024/01/04 02:29:44;;;;;;;;;;;;;;;9.34;69.20;97655.38;4434304;32;34686;-82
2024/01/04 02:32:11;;;;;;;;;;;;;;;9.15;69.96;97649.44;4433870;32;33740;-82
2024/01/04 02:34:38;;;;;;;;;;;;;;;9.44;68.80;97632.91;4434258;32;35019;-82
2024/01/04 02:37:06;;;;;;;;;;;;;;;9.55;68.33;97628.50;4434266;32;32884;-82
2024/01/04 02:39:33;;;;;;;;;;;;;;;9.75;67.49;97631.78;4433879;32;34216;-82
2024/01/04 02:42:00;;;;;;;;;;;;;;;9.47;68.15;97641.50;4435299;32;34928;-84
2024/01/04 02:44:28;;;;;;;;;;;;;;;9.61;67.55;97649.12;4432988;32;33768;-83
2024/01/04 02:46:56;;;;;;;;;;;;;;;9.70;67.10;97650.81;4433179;32;32795;-90
2024/01/04 02:49:23;;;;;;;;;;;;;;;9.65;67.14;97660.31;4421308;32;33808;-84
2024/01/04 02:51:52;;;;;;;;;;;;;;;9.42;67.75;97656.16;4435387;32;33761;-84
2024/01/04 02:54:20;;;;;;;;;;;;;;;9.53;66.90;97652.66;4435268;32;34361;-84
2024/01/04 02:56:48;;;;;;;;;;;;;;;9.04;67.97;97653.81;4436642;32;34030;-86
2024/01/04 02:59:15;;;;;;;;;;;;;;;9.16;68.42;97661.50;4427243;32;34793;-83
2024/01/04 03:01:48;;;;;;;;;;;;;;;9.20;68.01;97668.37;4432004;32;34380;-83
2024/01/04 03:04:15;;;;;;;;;;;;;;;9.17;67.87;97659.81;4427861;32;34898;-83
2024/01/04 03:06:43;;;;;;;;;;;;;;;8.97;68.25;97654.72;4424233;32;33380;-83
2024/01/04 03:09:11;;;;;;;;;;;;;;;9.24;67.36;97659.75;4421562;32;34925;-85
2024/01/04 03:11:39;;;;;;;;;;;;;;;9.17;67.39;97652.06;4421958;32;34890;-82
2024/01/04 03:14:07;;;;;;;;;;;;;;;9.26;66.80;97650.25;4423037;32;33469;-83
2024/01/04 03:16:35;;;;;;;;;;;;;;;9.02;67.63;97663.34;4429244;32;34050;-84
2024/01/04 03:19:02;;;;;;;;;;;;;;;9.10;66.96;97652.94;4425086;32;34139;-83
2024/01/04 03:21:30;;;;;;;;;;;;;;;8.93;67.03;97653.03;4421353;32;34287;-82
2024/01/04 03:23:57;;;;;;;;;;;;;;;9.05;66.34;97652.94;4421774;32;35061;-84
2024/01/04 03:26:25;;;;;;;;;;;;;;;8.86;66.75;97641.00;4424556;32;33660;-82
2024/01/04 03:28:52;;;;;;;;;;;;;;;9.06;66.12;97641.75;4423185;32;33720;-82
2024/01/04 03:31:20;;;;;;;;;;;;;;;8.74;67.18;97645.34;4421239;32;33783;-84
2024/01/04 03:33:49;;;;;;;;;;;;;;;8.97;66.87;97645.22;4423843;32;33540;-82
2024/01/04 03:36:16;;;;;;;;;;;;;;;8.99;66.80;97629.75;4421858;32;31677;-83
2024/01/04 03:38:45;;;;;;;;;;;;;;;8.71;67.80;97639.34;4423686;32;32812;-81
2024/01/04 03:41:13;;;;;;;;;;;;;;;8.95;67.20;97630.63;4411872;32;32998;-83
2024/01/04 03:43:40;;;;;;;;;;;;;;;9.07;66.63;97647.78;4424057;32;33734;-83
2024/01/04 03:46:10;;;;;;;;;;;;;;;8.34;69.82;97643.78;4437117;32;33587;-83
2024/01/04 03:48:40;;;;;;;;;;;;;;;8.83;68.89;97643.63;4435020;32;33677;-89
2024/01/04 03:51:09;;;;;;;;;;;;;;;8.97;68.22;97634.03;4431913;32;35377;-83
2024/01/04 03:53:36;;;;;;;;;;;;;;;9.03;67.68;97628.84;4437009;32;35164;-83
2024/01/04 03:56:04;;;;;;;;;;;;;;;9.05;67.48;97632.25;4436404;32;33102;-83
2024/01/04 03:58:32;;;;;;;;;;;;;;;9.07;67.43;97627.97;4437170;32;35603;-82
2024/01/04 04:01:01;;;;;;;;;;;;;;;9.19;66.97;97622.72;4437095;32;34009;-84
2024/01/04 04:03:28;;;;;;;;;;;;;;;9.11;67.10;97621.91;4437081;32;34210;-84
2024/01/04 04:05:56;;;;;;;;;;;;;;;9.24;66.66;97617.50;4421557;32;33287;-84
2024/01/04 04:08:23;;;;;;;;;;;;;;;9.37;66.09;97618.28;4430577;32;34448;-84
2024/01/04 04:10:51;;;;;;;;;;;;;;;9.36;66.35;97612.25;4437102;32;35280;-83
2024/01/04 04:13:18;;;;;;;;;;;;;;;9.27;66.53;97627.81;4437315;32;34344;-84
2024/01/04 04:15:45;;;;;;;;;;;;;;;9.21;67.16;97627.88;4436513;32;33427;-84
2024/01/04 04:18:12;;;;;;;;;;;;;;;9.33;67.01;97632.13;4436781;32;34244;-83
2024/01/04 04:20:40;;;;;;;;;;;;;;;9.13;67.68;97639.97;4437003;32;34866;-84
2024/01/04 04:23:07;;;;;;;;;;;;;;;8.95;68.54;97644.41;4434164;32;35334;-83
2024/01/04 04:25:38;;;;;;;;;;;;;;;8.89;68.97;97652.19;4436495;32;34054;-84
2024/01/04 04:28:05;;;;;;;;;;;;;;;8.76;69.63;97658.28;4436340;32;32978;-83
2024/01/04 04:30:32;;;;;;;;;;;;;;;9.11;68.74;97662.41;4435836;32;34900;-88
2024/01/04 04:33:00;;;;;;;;;;;;;;;9.34;67.84;97667.44;4436143;32;35250;-84
2024/01/04 04:35:27;;;;;;;;;;;;;;;9.36;67.81;97668.31;4436990;32;33333;-83
2024/01/04 04:37:54;;;;;;;;;;;;;;;9.47;67.27;97671.66;4435289;32;34084;-84
2024/01/04 04:40:22;;;;;;;;;;;;;;;9.28;67.91;97668.34;4436165;32;34449;-84
2024/01/04 04:42:49;;;;;;;;;;;;;;;9.38;67.56;97657.06;4433011;32;35096;-84
2024/01/04 04:45:16;;;;;;;;;;;;;;;9.43;67.30;97654.44;4436351;32;33340;-84
2024/01/04 04:47:44;;;;;;;;;;;;;;;9.34;67.75;97662.28;4435650;32;34248;-84
2024/01/04 04:50:11;;;;;;;;;;;;;;;9.35;67.55;97653.63;4436849;32;34100;-83
2024/01/04 04:52:38;;;;;;;;;;;;;;;9.35;67.58;97646.72;4436017;32;34243;-89
2024/01/04 04:55:06;;;;;;;;;;;;;;;9.31;67.73;97639.00;4435625;32;34338;-88
2024/01/04 04:57:36;;;;;;;;;;;;;;;9.36;67.49;97637.28;4435931;32;34978;-84
2024/01/04 05:00:04;;;;;;;;;;;;;;;9.30;67.65;97639.88;4434726;32;34317;-83
2024/01/04 05:02:31;;;;;;;;;;;;;;;9.41;67.57;97648.44;4434213;32;33626;-83
2024/01/04 05:04:59;;;;;;;;;;;;;;;9.34;67.71;97649.34;4436474;32;33590;-90
2024/01/04 05:07:26;;;;;;;;;;;;;;;9.48;67.15;97643.19;4423035;32;34686;-84
2024/01/04 05:09:53;;;;;;;;;;;;;;;9.53;67.05;97644.91;4436705;32;35122;-84
2024/01/04 05:12:20;;;;;;;;;;;;;;;9.63;66.58;97651.72;4436450;32;34325;-82
2024/01/04 05:14:48;;;;;;;;;;;;;;;9.35;67.45;97651.06;4421746;32;33496;-86
2024/01/04 05:17:15;;;;;;;;;;;;;;;9.47;67.08;97651.84;4426856;32;33347;-83
2024/01/04 05:19:46;;;;;;;;;;;;;;;9.44;67.15;97651.00;4430327;32;33690;-83
2024/01/04 05:22:13;;;;;;;;;;;;;;;9.47;66.96;97656.13;4436077;32;35209;-84
2024/01/04 05:24:41;;;;;;;;;;;;;;;9.46;67.14;97659.59;4436844;32;33529;-83
2024/01/04 05:27:08;;;;;;;;;;;;;;;9.38;67.40;97661.37;4435764;32;34751;-85
2024/01/04 05:29:36;;;;;;;;;;;;;;;9.44;67.08;97656.19;4435228;32;32832;-84
2024/01/04 05:32:03;;;;;;;;;;;;;;;9.00;68.16;97670.22;4436403;32;34740;-84
2024/01/04 05:34:32;;;;;;;;;;;;;;;9.33;67.30;97660.56;4436329;32;32773;-84
2024/01/04 05:36:59;;;;;;;;;;;;;;;9.48;66.61;97673.41;4435629;32;35082;-83
2024/01/04 05:39:27;;;;;;;;;;;;;;;9.25;67.24;97665.78;4435568;32;34508;-84
2024/01/04 05:41:54;;;;;;;;;;;;;;;8.68;69.51;97678.97;4435457;32;32536;-84
2024/01/04 05:44:21;;;;;;;;;;;;;;;8.40;70.69;97682.50;4434873;32;33307;-83
2024/01/04 05:46:49;;;;;;;;;;;;;;;8.97;68.99;97690.91;4436210;32;34196;-83
2024/01/04 05:49:16;;;;;;;;;;;;;;;8.58;70.91;97685.03;4435522;32;34388;-83
2024/01/04 05:51:43;;;;;;;;;;;;;;;8.98;69.27;97692.66;4436207;32;33655;-83
2024/01/04 05:54:11;;;;;;;;;;;;;;;8.92;69.09;97701.28;4434826;32;32987;-83
2024/01/04 05:56:38;;;;;;;;;;;;;;;8.61;70.09;97703.12;4436523;32;34009;-88
2024/01/04 05:59:06;;;;;;;;;;;;;;;8.57;69.44;97706.56;4435563;32;34375;-83
2024/01/04 06:01:33;;;;;;;;;;;;;;;8.69;69.26;97698.78;4435757;32;33764;-83
2024/01/04 06:04:02;;;;;;;;;;;;;;;8.91;68.67;97696.12;4434329;32;33501;-85
2024/01/04 06:06:30;;;;;;;;;;;;;;;8.98;68.40;97692.66;4435765;32;35039;-84
2024/01/04 06:08:59;;;;;;;;;;;;;;;8.99;68.25;97699.53;4435379;32;34105;-83
2024/01/04 06:11:27;;;;;;;;;;;;;;;9.01;68.26;97703.81;4435435;32;34191;-84
2024/01/04 06:13:54;;;;;;;;;;;;;;;8.46;70.10;97708.31;4435238;32;33656;-89
2024/01/04 06:16:21;;;;;;;;;;;;;;;8.92;67.99;97698.69;4434216;32;34636;-85
2024/01/04 06:18:49;;;;;;;;;;;;;;;8.57;69.42;97696.25;4435096;32;35262;-83
2024/01/04 06:21:17;;;;;;;;;;;;;;;8.33;69.80;97709.16;4433615;32;34803;-82
2024/01/04 06:23:44;;;;;;;;;;;;;;;8.19;69.88;97710.06;4435495;32;32968;-84
2024/01/04 06:26:16;;;;;;;;;;;;;;;8.64;68.86;97715.16;4433750;32;34239;-83
2024/01/04 06:28:43;;;;;;;;;;;;;;;8.84;67.57;97710.78;4432335;32;34497;-84
2024/01/04 06:31:11;;;;;;;;;;;;;;;8.67;68.10;97708.25;4434407;32;34260;-83
2024/01/04 06:33:38;;;;;;;;;;;;;;;8.71;67.51;97707.41;4433686;32;33343;-85
2024/01/04 06:36:06;;;;;;;;;;;;;;;8.74;67.29;97711.66;4435357;32;34293;-83
2024/01/04 06:38:35;;;;;;;;;;;;;;;8.81;66.87;97709.94;4436710;32;34142;-86
2024/01/04 06:41:03;;;;;;;;;;;;;;;8.76;66.74;97713.41;4437111;32;34027;-90
2024/01/04 06:43:31;;;;;;;;;;;;;;;8.69;66.73;97714.28;4437631;32;34122;-87
2024/01/04 06:45:58;;;;;;;;;;;;;;;8.83;65.90;97721.13;4437520;32;34022;-88
2024/01/04 06:48:25;;;;;;;;;;;;;;;8.88;65.48;97729.72;4436621;32;33940;-85
2024/01/04 06:50:53;;;;;;;;;;;;;;;8.96;65.08;97722.78;4437209;32;34201;-82
2024/01/04 06:53:20;;;;;;;;;;;;;;;8.36;66.03;97728.09;4440825;32;33780;-82
2024/01/04 06:55:47;;;;;;;;;;;;;;;8.65;65.47;97734.97;4436024;32;34796;-82
2024/01/04 06:58:15;;;;;;;;;;;;;;;8.40;65.89;97731.56;4436854;32;35194;-82
2024/01/04 07:00:42;;;;;;;;;;;;;;;8.59;65.26;97733.25;4436833;32;33962;-84
2024/01/04 07:03:09;;;;;;;;;;;;;;;8.57;65.25;97734.97;4435389;32;34040;-83
2024/01/04 07:05:37;;;;;;;;;;;;;;;8.05;66.69;97743.59;4436807;32;34280;-82
2024/01/04 07:08:05;;;;;;;;;;;;;;;8.01;67.06;97741.03;4422127;32;34614;-88
2024/01/04 07:10:32;;;;;;;;;;;;;;;8.24;66.25;97747.03;4436114;32;34208;-89
2024/01/04 07:12:59;;;;;;;;;;;;;;;8.23;66.17;97739.31;4436304;32;33314;-88
2024/01/04 07:15:27;;;;;;;;;;;;;;;8.32;65.99;97738.44;4435287;32;34124;-82
2024/01/04 07:17:54;;;;;;;;;;;;;;;8.00;67.01;97747.06;4434884;32;32750;-87
2024/01/04 07:20:21;;;;;;;;;;;;;;;8.11;66.89;97740.19;4436164;32;33546;-88
2024/01/04 07:22:53;;;;;;;;;;;;;;;8.05;66.90;97743.59;4443647;32;34234;-83
2024/01/04 07:25:22;;;;;;;;;;;;;;;7.84;67.54;97743.63;4452643;32;34109;-82
2024/01/04 07:27:50;;;;;;;;;;;;;;;7.53;68.90;97740.97;4428783;32;35013;-83
2024/01/04 07:30:17;;;;;;;;;;;;;;;8.04;66.84;97730.72;4436932;32;33806;-86
2024/01/04 07:32:45;;;;;;;;;;;;;;;8.15;66.52;97739.31;4436153;32;31981;-82
2024/01/04 07:35:19;;;;;;;;;;;;;;;8.28;65.97;97738.44;4435673;32;34899;-83
2024/01/04 07:37:46;;;;;;;;;;;;;;;8.57;65.22;97727.22;4436726;32;34384;-82
2024/01/04 07:40:14;;;;;;;;;;;;;;;8.25;65.61;97732.41;4436462;32;34195;-87
2024/01/04 07:42:41;;;;;;;;;;;;;;;8.27;65.63;97734.12;4436156;32;33870;-89
2024/01/04 07:45:09;;;;;;;;;;;;;;;8.47;64.36;97733.28;4434872;32;34232;-88
2024/01/04 07:47:36;;;;;;;;;;;;;;;8.77;63.51;97735.78;4436198;32;33411;-87
2024/01/04 07:50:05;;;;;;;;;;;;;;;9.02;62.26;97733.12;4439234;32;34395;-83
2024/01/04 07:52:32;;;;;;;;;;;;;;;8.84;61.82;97725.44;4445069;32;33442;-86
2024/01/04 07:54:59;;;;;;;;;;;;;;;9.10;61.63;97727.91;4436474;32;33792;-87
2024/01/04 07:57:32;;;;;;;;;;;;;;;9.21;61.08;97729.59;4436649;32;34574;-86
2024/01/04 07:59:59;;;;;;;;;;;;;;;9.60;60.43;97725.03;4436616;32;34824;-83
2024/01/04 08:02:28;;;;;;;;;;;;;;;9.74;59.64;97720.66;4436510;32;33230;-87
2024/01/04 08:04:56;;;;;;;;;;;;;;;9.71;59.54;97718.06;4436739;32;35088;-89
2024/01/04 08:07:24;;;;;;;;;;;;;;;9.82;58.65;97719.72;4436436;32;33999;-89
2024/01/04 08:09:51;;;;;;;;;;;;;;;9.61;58.95;97716.41;4435983;32;34062;-89
2024/01/04 08:12:20;;;;;;;;;;;;;;;9.78;58.95;97718.91;4436306;32;32912;-84
2024/01/04 08:14:47;;;;;;;;;;;;;;;10.19;57.85;97718.56;4435229;32;33914;-90
2024/01/04 08:17:14;;;;;;;;;;;;;;;9.93;57.34;97718.78;4434368;32;34571;-89
2024/01/04 08:19:42;;;;;;;;;;;;;;;10.21;56.46;97719.38;4428448;32;34323;-88
2024/01/04 08:22:10;;;;;;;;;;;;;;;10.02;56.21;97723.00;4435623;32;34110;-84
2024/01/04 08:24:37;;;;;;;;;;;;;;;10.11;56.67;97725.50;4436618;32;34166;-85
2024/01/04 08:27:04;;;;;;;;;;;;;;;10.53;56.31;97731.22;4436404;32;34274;-84
2024/01/04 08:29:32;;;;;;;;;;;;;;;10.53;55.38;97728.63;4434772;32;34011;-85
2024/01/04 08:31:59;;;;;;;;;;;;;;;11.07;53.28;97721.09;4436069;32;33260;-84
2024/01/04 08:34:27;;;;;;;;;;;;;;;10.75;53.91;97715.44;4436851;32;35107;-89
2024/01/04 08:36:54;;;;;;;;;;;;;;;11.05;53.00;97720.25;4436345;32;35304;-84
2024/01/04 08:39:22;;;;;;;;;;;;;;;11.20;52.42;97730.44;4436732;32;35002;-90
2024/01/04 08:41:50;;;;;;;;;;;;;;;11.38;51.72;97733.69;4436876;32;32992;-89
2024/01/04 08:44:18;;;;;;;;;;;;;;;11.30;52.84;97735.50;4436569;32;34869;-88
2024/01/04 08:46:46;;;;;;;;;;;;;;;11.01;52.76;97734.12;4436752;32;34925;-83
2024/01/04 08:49:14;;;;;;;;;;;;;;;10.98;52.88;97733.31;4422449;32;32617;-85
2024/01/04 08:51:41;;;;;;;;;;;;;;;11.17;52.79;97734.78;4437006;32;33311;-87
2024/01/04 08:54:09;;;;;;;;;;;;;;;11.16;53.30;97738.28;4435541;32;34964;-89
2024/01/04 08:56:36;;;;;;;;;;;;;;;11.00;53.14;97750.56;4437179;32;34292;-83
2024/01/04 08:59:04;;;;;;;;;;;;;;;11.41;52.64;97750.06;4436508;32;34166;-89
2024/01/04 09:01:31;;;;;;;;;;;;;;;11.42;51.96;97753.50;4436833;32;33247;-86
2024/01/04 09:03:58;;;;;;;;;;;;;;;11.29;52.55;97759.72;4436678;32;34816;-84
2024/01/04 09:06:26;;;;;;;;;;;;;;;11.02;51.61;97761.78;4436628;32;33798;-84
2024/01/04 09:08:53;;;;;;;;;;;;;;;11.25;51.73;97758.94;4436108;32;33558;-85
2024/01/04 09:11:21;;;;;;;;;;;;;;;11.35;51.71;97754.47;4435075;32;33309;-85
2024/01/04 09:13:48;;;;;;;;;;;;;;;11.55;50.90;97751.59;4431676;32;35000;-87
2024/01/04 09:16:15;;;;;;;;;;;;;;;11.26;51.46;97758.03;4433693;32;34118;-86
2024/01/04 09:18:42;;;;;;;;;;;;;;;11.32;51.19;97759.69;4434834;32;35013;-85
2024/01/04 09:21:10;;;;;;;;;;;;;;;11.48;51.13;97766.41;4434522;32;34147;-84
2024/01/04 09:23:37;;;;;;;;;;;;;;;11.72;50.83;97760.03;4436402;32;34863;-88
2024/01/04 09:26:09;;;;;;;;;;;;;;;11.66;50.27;97754.91;4436233;32;34484;-84
2024/01/04 09:28:39;;;;;;;;;;;;;;;11.90;50.00;97756.34;4426162;32;34807;-86
2024/01/04 09:31:06;;;;;;;;;;;;;;;12.00;49.76;97757.88;4436293;32;32989;-84
2024/01/04 09:33:34;;;;;;;;;;;;;;;11.82;49.60;97748.62;4436408;32;35070;-84
2024/01/04 09:36:02;;;;;;;;;;;;;;;11.92;50.31;97754.56;4436236;32;34146;-84
2024/01/04 09:38:32;;;;;;;;;;;;;;;12.21;49.54;97751.50;4436381;32;35055;-83
2024/01/04 09:41:01;;;;;;;;;;;;;;;11.68;50.27;97750.56;4436227;32;33142;-84
2024/01/04 09:43:30;;;;;;;;;;;;;;;11.82;49.54;97753.81;4421454;32;34151;-87
2024/01/04 09:45:58;;;;;;;;;;;;;;;11.80;49.62;97747.78;4419013;32;34188;-84
2024/01/04 09:48:25;;;;;;;;;;;;;;;11.61;48.43;97735.94;4435407;32;34326;-84
2024/01/04 09:51:00;;;;;;;;;;;;;;;11.75;47.49;97746.16;4422294;32;33122;-85
2024/01/04 09:53:28;;;;;;;;;;;;;;;12.11;47.89;97744.72;4436193;32;34160;-89
2024/01/04 09:55:55;;;;;;;;;;;;;;;12.25;46.71;97745.37;4424093;32;34078;-88
2024/01/04 09:58:24;;;;;;;;;;;;;;;12.36;46.38;97745.19;4413323;32;34157;-83
2024/01/04 10:00:52;;;;;;;;;;;;;;;12.55;45.79;97744.00;4435698;32;33314;-87
2024/01/04 10:03:19;;;;;;;;;;;;;;;12.00;47.08;97757.88;4420374;32;34875;-89
2024/01/04 10:05:47;;;;;;;;;;;;;;;11.80;46.53;97762.50;4437378;32;35177;-84
2024/01/04 10:08:28;;;;;;;;;;;;;;;12.01;46.80;97764.81;4439806;32;34037;-84
2024/01/04 10:10:56;;;;;;;;;;;;;;;12.09;46.34;97762.97;4426658;32;32968;-89
2024/01/04 10:13:24;;;;;;;;;;;;;;;12.59;45.90;97763.00;4425949;32;34249;-87
2024/01/04 10:15:51;;;;;;;;;;;;;;;12.40;45.81;97765.06;4437233;32;34957;-85
2024/01/04 10:18:19;;;;;;;;;;;;;;;12.29;46.17;97773.03;4438765;32;34323;-88
2024/01/04 10:21:00;;;;;;;;;;;;;;;12.24;45.60;97774.00;4439358;32;33577;-87
2024/01/04 10:23:28;;;;;;;;;;;;;;;12.11;45.78;97779.34;4440181;32;35025;-84
2024/01/04 10:26:06;;;;;;;;;;;;;;;12.37;45.68;97780.69;4439834;32;34287;-88
2024/01/04 10:28:35;;;;;;;;;;;;;;;12.21;46.87;97780.09;4429614;32;34811;-85
2024/01/04 10:31:06;;;;;;;;;;;;;;;12.40;46.68;97780.66;4433883;32;33589;-91
2024/01/04 10:33:34;;;;;;;;;;;;;;;12.46;46.10;97783.13;4427303;32;35077;-88
2024/01/04 10:36:09;;;;;;;;;;;;;;;12.70;45.56;97783.59;4427305;32;35079;-84
2024/01/04 10:38:37;;;;;;;;;;;;;;;12.87;45.14;97777.19;4439746;32;34131;-89
2024/01/04 10:41:04;;;;;;;;;;;;;;;12.51;45.78;97781.31;4440306;32;33571;-89
2024/01/04 10:43:31;;;;;;;;;;;;;;;12.47;46.25;97777.06;4440781;32;34055;-85
2024/01/04 10:46:05;;;;;;;;;;;;;;;12.91;45.64;97778.84;4426223;32;34403;-91
2024/01/04 10:48:32;;;;;;;;;;;;;;;12.46;45.87;97779.66;4426571;32;34051;-91
2024/01/04 10:51:02;;;;;;;;;;;;;;;12.46;46.24;97769.28;4426823;32;33385;-87
2024/01/04 10:53:36;;;;;;;;;;;;;;;12.54;45.80;97767.37;4426065;32;34871;-90
2024/01/04 10:56:04;;;;;;;;;;;;;;;12.21;46.08;97768.84;4439183;32;33163;-90
2024/01/04 10:58:37;;;;;;;;;;;;;;;12.43;45.86;97770.19;4439258;32;34637;-88
2024/01/04 11:01:05;;;;;;;;;;;;;;;12.55;46.06;97767.37;4439346;32;32965;-89
2024/01/04 11:03:32;;;;;;;;;;;;;;;12.45;45.43;97763.22;4440696;32;33972;-93
2024/01/04 11:06:00;;;;;;;;;;;;;;;12.24;46.22;97754.06;4440456;32;34158;-85
2024/01/04 11:08:28;;;;;;;;;;;;;;;12.34;46.25;97746.94;4439303;32;35201;-91
2024/01/04 11:10:56;;;;;;;;;;;;;;;12.72;45.41;97740.22;4437502;32;33431;-91
2024/01/04 11:13:23;;;;;;;;;;;;;;;12.56;45.06;97748.28;4426003;32;34145;-88
2024/01/04 11:15:51;;;;;;;;;;;;;;;12.65;45.34;97747.25;4438774;32;34387;-85
2024/01/04 11:18:31;;;;;;;;;;;;;;;12.68;45.69;97746.34;4423221;32;34122;-89
2024/01/04 11:21:05;;;;;;;;;;;;;;;12.64;45.97;97746.41;4423523;32;33391;-89
2024/01/04 11:23:39;;;;;;;;;;;;;;;12.59;45.58;97747.38;4422810;32;34237;-91
2024/01/04 11:26:12;;;;;;;;;;;;;;;12.45;46.10;97751.97;4435950;32;34417;-87
2024/01/04 11:28:42;;;;;;;;;;;;;;;12.53;45.39;97752.69;4437228;32;34911;-88
2024/01/04 11:31:10;;;;;;;;;;;;;;;12.84;45.53;97747.78;4435227;32;33961;-89
2024/01/04 11:33:40;;;;;;;;;;;;;;;12.68;46.31;97744.59;4435608;32;34993;-91
2024/01/04 11:36:09;;;;;;;;;;;;;;;12.90;45.23;97751.13;4437472;32;34232;-90
2024/01/04 11:38:37;;;;;;;;;;;;;;;12.90;45.01;97751.13;4437366;32;34817;-90
2024/01/04 11:41:04;;;;;;;;;;;;;;;12.34;45.70;97746.94;4434858;32;34158;-87
2024/01/04 11:43:35;;;;;;;;;;;;;;;12.50;45.89;97751.03;4436927;32;34101;-92
2024/01/04 11:46:26;;;;;;;;;;;;;;;13.03;45.27;97746.56;4434756;32;34366;-91
2024/01/04 11:48:54;;;;;;;;;;;;;;;12.87;45.64;97750.31;4437314;32;34411;-88
2024/01/04 11:51:32;;;;;;;;;;;;;;;12.59;46.58;97757.78;4437483;32;33444;-92
2024/01/04 11:54:00;;;;;;;;;;;;;;;12.41;46.75;97756.34;4423341;32;33819;-90
2024/01/04 11:56:27;;;;;;;;;;;;;;;12.07;47.15;97751.72;4423470;32;34240;-85
2024/01/04 11:59:04;;;;;;;;;;;;;;;12.18;47.07;97751.56;4436942;32;35252;-89
2024/01/04 12:01:32;;;;;;;;;;;;;;;12.39;46.94;97759.00;4435172;32;33144;-90
2024/01/04 12:04:05;;;;;;;;;;;;;;;12.22;48.08;97755.81;4434574;32;34290;-92
2024/01/04 12:06:33;;;;;;;;;;;;;;;12.42;48.17;97758.06;4429208;32;34907;-90
2024/01/04 12:09:01;;;;;;;;;;;;;;;12.25;48.08;97760.09;4432940;32;34267;-89
2024/01/04 12:11:28;;;;;;;;;;;;;;;12.15;47.80;97762.84;4422745;32;33417;-86
2024/01/04 12:13:56;;;;;;;;;;;;;;;12.24;47.91;97779.19;4436793;32;34695;-87
2024/01/04 12:16:24;;;;;;;;;;;;;;;12.29;47.31;97790.34;4436645;32;34824;-95
2024/01/04 12:18:51;;;;;;;;;;;;;;;12.30;48.44;97792.91;4435601;32;34234;-88
2024/01/04 12:21:18;;;;;;;;;;;;;;;12.49;46.99;97797.81;4436148;32;34121;-93
2024/01/04 12:23:47;;;;;;;;;;;;;;;12.37;48.53;97804.06;4437011;32;33971;-86
2024/01/04 12:26:14;;;;;;;;;;;;;;;12.16;48.14;97806.16;4422917;32;33739;-89
2024/01/04 12:28:41;;;;;;;;;;;;;;;11.54;50.08;97801.78;4422795;32;34690;-84
2024/01/04 12:31:09;;;;;;;;;;;;;;;12.00;49.95;97814.19;4423154;32;33387;-91
2024/01/04 12:33:39;;;;;;;;;;;;;;;11.93;50.10;97819.47;4436400;32;34188;-89
2024/01/04 12:36:06;;;;;;;;;;;;;;;12.08;49.37;97796.72;4434300;32;34269;-89
2024/01/04 12:38:34;;;;;;;;;;;;;;;11.98;50.44;97802.97;4436500;32;34110;-84
2024/01/04 12:41:01;;;;;;;;;;;;;;;11.90;50.62;97805.69;4436491;32;34180;-84
2024/01/04 12:43:28;;;;;;;;;;;;;;;11.58;50.78;97814.72;4436388;32;34166;-90
2024/01/04 12:46:02;;;;;;;;;;;;;;;12.18;50.54;97812.16;4436478;32;34230;-86
2024/01/04 12:48:29;;;;;;;;;;;;;;;12.03;50.67;97801.16;4436170;32;34202;-84
2024/01/04 12:51:07;;;;;;;;;;;;;;;11.93;50.48;97796.09;4436364;32;33666;-94
2024/01/04 12:53:35;;;;;;;;;;;;;;;12.12;49.90;97799.28;4435420;32;33899;-89
2024/01/04 12:56:03;;;;;;;;;;;;;;;11.51;51.08;97796.63;4436649;32;34406;-92
2024/01/04 12:58:30;;;;;;;;;;;;;;;11.60;50.99;97792.19;4430569;32;34105;-85